Terminal Aerodrome Forecast
Issued by NWS

Home | Current Version | Previous Version | Text Only | Print | Product List | Glossary On
Versions: 1 2 3 4 5 6 7 8 9 10 11 12 13 14 15 16 17 18 19 20 21 22 23 24 25 26 27 28 29 30 31 32 33 34 35 36 37 38 39 40 41 42 43 44 45 46 47 48 49 50
000
FTUS44 KHGX 250844 AAB
TAFLBX
TAF AMD
KLBX 250844Z 2509/2606 VRB10KT 4SM -TSRA SCT013 BKN025CB
     FM250930 VRB04KT P6SM VCTS BKN022CB
      TEMPO 2510/2513 3SM BR SCT005
     FM251300 05005KT P6SM VCSH BKN025
     FM251600 08008KT P6SM VCTS BKN040CB
     FM252200 09006KT P6SM BKN050 BKN120=

USA.gov is the U.S. government's official web portal to all federal, state and local government web resources and services.